createdAt,value
2023-03-22T00:01:46.492Z,72.30
2023-03-22T00:04:13.078Z,72.24
2023-03-22T00:06:39.536Z,72.03
2023-03-22T00:09:06.293Z,72.58
2023-03-22T00:11:32.678Z,72.40
2023-03-22T00:13:59.941Z,72.89
2023-03-22T00:16:26.764Z,72.77
2023-03-22T00:18:53.245Z,72.70
2023-03-22T00:21:19.752Z,72.97
2023-03-22T00:23:46.589Z,73.31
2023-03-22T00:26:14.830Z,73.46
2023-03-22T00:28:42.284Z,73.48
2023-03-22T00:31:09.277Z,73.25
2023-03-22T00:33:36.609Z,73.45
2023-03-22T00:36:08.686Z,73.56
2023-03-22T00:38:42.950Z,73.32
2023-03-22T00:41:11.417Z,73.35
2023-03-22T00:43:38.486Z,73.73
2023-03-22T00:46:05.827Z,73.43
2023-03-22T00:48:32.415Z,73.44
2023-03-22T00:50:58.904Z,73.52
2023-03-22T00:53:26.400Z,73.75
2023-03-22T00:55:52.821Z,73.96
2023-03-22T00:58:19.226Z,74.33
2023-03-22T01:00:46.069Z,74.20
2023-03-22T01:03:14.178Z,74.14
2023-03-22T01:05:40.589Z,74.31
2023-03-22T01:08:08.684Z,74.73
2023-03-22T01:10:36.747Z,75.00
2023-03-22T01:13:04.008Z,74.82
2023-03-22T01:15:30.623Z,74.58
2023-03-22T01:17:57.407Z,74.65
2023-03-22T01:20:24.189Z,74.51
2023-03-22T01:22:51.322Z,74.38
2023-03-22T01:25:18.373Z,74.38
2023-03-22T01:27:45.226Z,74.21
2023-03-22T01:30:12.640Z,74.29
2023-03-22T01:32:39.473Z,74.07
2023-03-22T01:35:07.179Z,74.29
2023-03-22T01:37:33.718Z,74.66
2023-03-22T01:40:00.505Z,74.44
2023-03-22T01:42:27.844Z,74.47
2023-03-22T01:45:13.032Z,74.84
2023-03-22T01:47:47.973Z,74.52
2023-03-22T01:50:15.222Z,74.44
2023-03-22T01:52:41.677Z,74.56
2023-03-22T01:55:09.434Z,74.83
2023-03-22T01:57:39.250Z,74.46
2023-03-22T02:00:10.802Z,74.42
2023-03-22T02:02:37.357Z,74.49
2023-03-22T02:05:04.474Z,74.88
2023-03-22T02:07:31.736Z,74.74
2023-03-22T02:09:59.526Z,74.65
2023-03-22T02:13:02.003Z,75.11
2023-03-22T02:15:52.054Z,75.30
2023-03-22T02:18:35.616Z,75.27
2023-03-22T02:21:04.965Z,75.23
2023-03-22T02:23:57.341Z,75.85
2023-03-22T02:26:41.728Z,76.00
2023-03-22T02:29:26.266Z,75.89
2023-03-22T02:32:12.201Z,76.38
2023-03-22T02:34:55.379Z,76.59
2023-03-22T02:37:38.886Z,76.84
2023-03-22T02:40:26.308Z,76.48
2023-03-22T02:43:16.955Z,76.59
2023-03-22T02:46:07.746Z,76.39
2023-03-22T02:48:50.640Z,76.22
2023-03-22T02:51:29.863Z,76.22
2023-03-22T02:54:06.523Z,76.39
2023-03-22T02:57:16.698Z,76.85
2023-03-22T02:59:44.184Z,76.36
2023-03-22T03:02:17.263Z,76.60
2023-03-22T03:04:47.898Z,76.68
2023-03-22T03:07:19.257Z,76.71
2023-03-22T03:09:45.997Z,76.77
2023-03-22T03:12:20.102Z,76.79
2023-03-22T03:14:46.527Z,76.62
2023-03-22T03:17:37.920Z,77.05
2023-03-22T03:20:30.401Z,77.18
2023-03-22T03:23:04.687Z,77.43
2023-03-22T03:25:43.599Z,77.49
2023-03-22T03:28:30.182Z,77.38
2023-03-22T03:31:06.430Z,77.56
2023-03-22T03:33:36.338Z,77.57
2023-03-22T03:36:08.287Z,77.66
2023-03-22T03:38:38.311Z,77.71
2023-03-22T03:41:09.192Z,77.77
2023-03-22T03:43:37.119Z,77.81
2023-03-22T03:46:03.674Z,77.73
2023-03-22T03:48:33.195Z,77.97
2023-03-22T03:51:01.753Z,77.79
2023-03-22T03:53:28.777Z,77.88
2023-03-22T03:55:55.205Z,78.06
2023-03-22T03:58:21.634Z,78.44
2023-03-22T04:00:48.851Z,78.42
2023-03-22T04:03:15.663Z,78.51
2023-03-22T04:05:42.852Z,78.39
2023-03-22T04:08:09.293Z,78.95
2023-03-22T04:10:36.076Z,78.70
2023-03-22T04:13:02.495Z,79.13
2023-03-22T04:15:29.058Z,79.73
2023-03-22T04:17:55.532Z,79.63
2023-03-22T04:20:22.506Z,79.36
2023-03-22T04:22:49.090Z,79.97
2023-03-22T04:25:18.039Z,79.82
2023-03-22T04:27:47.121Z,80.00
2023-03-22T04:30:22.171Z,80.02
2023-03-22T04:32:49.685Z,79.27
2023-03-22T04:35:16.553Z,79.57
2023-03-22T04:37:43.675Z,79.25
2023-03-22T04:40:16.518Z,79.01
2023-03-22T04:42:44.696Z,78.99
2023-03-22T04:45:12.396Z,78.84
2023-03-22T04:47:39.200Z,78.86
2023-03-22T04:50:07.590Z,78.85
2023-03-22T04:52:33.984Z,78.95
2023-03-22T04:55:00.468Z,78.62
2023-03-22T04:57:26.985Z,78.82
2023-03-22T04:59:53.362Z,78.84
2023-03-22T05:02:19.825Z,79.01
2023-03-22T05:04:46.286Z,79.35
2023-03-22T05:07:12.863Z,79.63
2023-03-22T05:09:39.380Z,80.08
2023-03-22T05:12:06.026Z,79.84
2023-03-22T05:14:32.620Z,79.99
2023-03-22T05:16:59.147Z,79.62
2023-03-22T05:19:25.609Z,80.11
2023-03-22T05:21:58.493Z,80.43
2023-03-22T05:24:25.271Z,80.12
2023-03-22T05:26:53.866Z,80.31
2023-03-22T05:29:21.340Z,80.21
2023-03-22T05:31:47.898Z,80.62
2023-03-22T05:34:14.719Z,80.50
2023-03-22T05:36:41.503Z,80.75
2023-03-22T05:39:08.080Z,80.88
2023-03-22T05:41:36.667Z,80.91
2023-03-22T05:44:04.355Z,80.98
2023-03-22T05:46:30.894Z,80.98
2023-03-22T05:48:57.390Z,81.44
2023-03-22T05:51:26.277Z,82.10
2023-03-22T05:53:53.533Z,82.89
2023-03-22T05:56:24.908Z,83.78
2023-03-22T05:58:52.069Z,83.80
2023-03-22T06:01:20.404Z,83.75
2023-03-22T06:03:48.646Z,83.51
2023-03-22T06:06:15.726Z,83.34
2023-03-22T06:08:42.870Z,83.32
2023-03-22T06:11:09.852Z,83.38
2023-03-22T06:13:37.443Z,83.22
2023-03-22T06:16:05.341Z,83.40
2023-03-22T06:18:32.999Z,83.36
2023-03-22T06:20:59.492Z,83.20
2023-03-22T06:23:26.301Z,83.70
2023-03-22T06:25:52.813Z,83.71
2023-03-22T06:28:19.231Z,83.86
2023-03-22T06:30:45.751Z,84.34
2023-03-22T06:33:12.218Z,84.38
2023-03-22T06:35:38.716Z,85.03
2023-03-22T06:38:05.460Z,85.42
2023-03-22T06:40:31.926Z,85.14
2023-03-22T06:42:59.838Z,85.42
2023-03-22T06:45:33.136Z,85.59
2023-03-22T06:48:00.835Z,85.62
2023-03-22T06:50:28.568Z,85.50
2023-03-22T06:52:55.338Z,85.49
2023-03-22T06:55:22.206Z,85.77
2023-03-22T06:57:48.604Z,85.66
2023-03-22T07:00:15.927Z,85.44
2023-03-22T07:02:42.307Z,85.31
2023-03-22T07:05:09.266Z,85.38
2023-03-22T07:07:35.810Z,85.38
2023-03-22T07:10:02.201Z,85.08
2023-03-22T07:12:28.773Z,84.89
2023-03-22T07:14:55.349Z,84.89
2023-03-22T07:17:21.861Z,84.95
2023-03-22T07:19:48.835Z,84.96
2023-03-22T07:22:15.450Z,85.36
2023-03-22T07:24:55.742Z,84.99
2023-03-22T07:27:23.656Z,84.74
2023-03-22T07:29:50.184Z,84.38
2023-03-22T07:32:16.838Z,84.90
2023-03-22T07:34:43.759Z,84.62
2023-03-22T07:37:10.260Z,84.74
2023-03-22T07:39:37.045Z,84.10
2023-03-22T07:42:03.848Z,84.62
2023-03-22T07:44:30.830Z,84.73
2023-03-22T07:46:57.403Z,84.72
2023-03-22T07:49:24.229Z,85.39
2023-03-22T07:51:50.901Z,85.23
2023-03-22T07:54:32.172Z,85.03
2023-03-22T07:56:59.281Z,85.08
2023-03-22T07:59:26.018Z,84.56
2023-03-22T08:01:52.564Z,84.49
2023-03-22T08:04:20.913Z,84.66
2023-03-22T08:06:47.315Z,84.64
2023-03-22T08:09:13.717Z,85.24
2023-03-22T08:11:40.419Z,85.50
2023-03-22T08:14:07.062Z,85.68
2023-03-22T08:16:33.591Z,85.05
2023-03-22T08:19:00.648Z,85.15
2023-03-22T08:21:27.541Z,84.18
2023-03-22T08:23:54.394Z,83.92
2023-03-22T08:26:22.098Z,84.24
2023-03-22T08:28:49.015Z,83.67
2023-03-22T08:31:17.222Z,83.05
2023-03-22T08:33:44.811Z,83.05
2023-03-22T08:36:14.640Z,82.64
2023-03-22T08:38:42.728Z,82.75
2023-03-22T08:41:09.430Z,83.47
2023-03-22T08:43:36.017Z,82.78
2023-03-22T08:46:02.898Z,81.18
2023-03-22T08:48:30.797Z,81.30
2023-03-22T08:50:58.127Z,81.25
2023-03-22T08:53:24.983Z,80.90
2023-03-22T08:55:51.407Z,81.58
2023-03-22T08:58:19.957Z,80.22
2023-03-22T09:00:49.460Z,80.62
2023-03-22T09:03:16.952Z,80.17
2023-03-22T09:05:44.025Z,79.80
2023-03-22T09:08:18.400Z,81.19
2023-03-22T09:10:51.147Z,80.02
2023-03-22T09:13:17.956Z,79.51
2023-03-22T09:15:47.645Z,79.07
2023-03-22T09:18:15.232Z,77.78
2023-03-22T09:20:43.152Z,77.44
2023-03-22T09:23:09.798Z,76.75
2023-03-22T09:25:36.602Z,76.85
2023-03-22T09:28:04.191Z,77.46
2023-03-22T09:30:31.106Z,75.28
2023-03-22T09:32:57.492Z,75.57
2023-03-22T09:35:24.419Z,73.00
2023-03-22T09:37:53.218Z,74.75
2023-03-22T09:40:21.713Z,75.86
2023-03-22T09:42:54.236Z,74.32
2023-03-22T09:45:38.110Z,70.86
2023-03-22T09:48:11.691Z,70.02
2023-03-22T09:50:46.231Z,69.41
2023-03-22T09:53:15.532Z,67.52
2023-03-22T09:55:51.271Z,66.42
2023-03-22T09:58:36.721Z,66.52
2023-03-22T10:01:10.809Z,67.77
2023-03-22T10:03:42.895Z,67.27
2023-03-22T10:06:20.792Z,66.39
2023-03-22T10:09:13.956Z,67.90
2023-03-22T10:11:47.302Z,65.66
2023-03-22T10:14:38.524Z,64.46
2023-03-22T10:17:11.673Z,63.49
2023-03-22T10:19:56.951Z,63.34
2023-03-22T10:22:31.150Z,63.05
2023-03-22T10:25:00.245Z,62.61
2023-03-22T10:27:29.366Z,61.75
2023-03-22T10:30:08.777Z,61.25
2023-03-22T10:32:56.398Z,61.30
2023-03-22T10:35:23.467Z,61.74
2023-03-22T10:37:51.698Z,60.79
2023-03-22T10:40:23.884Z,61.92
2023-03-22T10:43:01.397Z,61.23
2023-03-22T10:45:28.474Z,60.96
2023-03-22T10:48:06.918Z,59.54
2023-03-22T10:50:38.049Z,60.15
2023-03-22T10:53:08.698Z,59.68
2023-03-22T10:55:44.004Z,59.64
2023-03-22T10:58:10.324Z,59.79
2023-03-22T11:00:40.633Z,59.53
2023-03-22T11:03:08.299Z,57.91
2023-03-22T11:05:35.085Z,58.72
2023-03-22T11:08:03.219Z,57.63
2023-03-22T11:10:35.080Z,58.75
2023-03-22T11:13:07.576Z,57.95
2023-03-22T11:15:38.843Z,58.08
2023-03-22T11:18:16.214Z,58.20
2023-03-22T11:20:56.092Z,58.02
2023-03-22T11:23:24.097Z,58.63
2023-03-22T11:25:52.761Z,58.97
2023-03-22T11:28:25.982Z,57.88
2023-03-22T11:31:01.811Z,56.99
2023-03-22T11:33:28.319Z,56.92
2023-03-22T11:35:57.605Z,55.66
2023-03-22T11:38:24.166Z,56.77
2023-03-22T11:40:59.098Z,55.81
2023-03-22T11:43:52.723Z,55.19
2023-03-22T11:46:20.763Z,55.75
2023-03-22T11:48:51.089Z,55.19
2023-03-22T11:51:26.763Z,55.06
2023-03-22T11:54:06.919Z,55.73
2023-03-22T11:56:34.462Z,54.05
2023-03-22T11:59:07.915Z,54.56
2023-03-22T12:01:43.870Z,54.41
2023-03-22T12:04:18.652Z,53.92
2023-03-22T12:06:45.232Z,54.90
2023-03-22T12:09:14.384Z,53.22
2023-03-22T12:11:45.176Z,53.42
2023-03-22T12:14:23.262Z,53.96
2023-03-22T12:17:00.187Z,52.87
2023-03-22T12:19:43.245Z,52.93
2023-03-22T12:22:31.813Z,52.12
2023-03-22T12:24:59.441Z,52.49
2023-03-22T12:27:28.564Z,52.20
2023-03-22T12:30:01.338Z,52.34
2023-03-22T12:32:45.796Z,51.98
2023-03-22T12:35:20.490Z,51.92
2023-03-22T12:37:52.106Z,52.12
2023-03-22T12:40:26.436Z,52.47
2023-03-22T12:43:08.206Z,52.46
2023-03-22T12:45:41.181Z,51.48
2023-03-22T12:48:24.024Z,51.06
2023-03-22T12:50:59.949Z,51.25
2023-03-22T12:53:33.174Z,51.26
2023-03-22T12:56:01.052Z,51.42
2023-03-22T12:58:27.711Z,51.17
2023-03-22T13:00:59.135Z,51.45
2023-03-22T13:03:30.037Z,51.40
2023-03-22T13:06:28.301Z,52.21
2023-03-22T13:09:21.178Z,50.26
2023-03-22T13:12:08.893Z,49.98
2023-03-22T13:14:50.848Z,49.61
2023-03-22T13:17:23.263Z,49.46
2023-03-22T13:20:11.633Z,49.95
2023-03-22T13:22:38.161Z,50.72
2023-03-22T13:25:12.490Z,49.33
2023-03-22T13:27:53.980Z,48.67
2023-03-22T13:30:20.280Z,48.54
2023-03-22T13:33:03.470Z,48.74
2023-03-22T13:35:46.538Z,48.19
2023-03-22T13:38:23.038Z,47.92
2023-03-22T13:40:56.443Z,48.41
2023-03-22T13:43:28.234Z,47.51
2023-03-22T13:46:18.083Z,47.92
2023-03-22T13:48:47.863Z,47.93
2023-03-22T13:51:18.197Z,48.43
2023-03-22T13:54:07.285Z,48.46
2023-03-22T13:56:43.083Z,47.36
2023-03-22T13:59:19.795Z,46.55
2023-03-22T14:01:52.366Z,46.59
2023-03-22T14:04:30.732Z,45.93
2023-03-22T14:07:08.119Z,46.23
2023-03-22T14:09:44.324Z,47.20
2023-03-22T14:12:13.531Z,47.07
2023-03-22T14:14:47.295Z,47.14
2023-03-22T14:17:29.749Z,47.07
2023-03-22T14:19:58.318Z,47.55
